sensor_id;sensor_type;location;lat;lon;timestamp;temperature;humidity
56374;DHT22;58212;47.034;7.376;2023-04-09T00:00:45;6.90;99.90
56374;DHT22;58212;47.034;7.376;2023-04-09T00:03:12;6.90;99.90
56374;DHT22;58212;47.034;7.376;2023-04-09T00:05:41;7.00;99.90
56374;DHT22;58212;47.034;7.376;2023-04-09T00:08:10;7.00;99.90
56374;DHT22;58212;47.034;7.376;2023-04-09T00:10:37;7.00;99.90
56374;DHT22;58212;47.034;7.376;2023-04-09T00:13:05;7.00;99.90
56374;DHT22;58212;47.034;7.376;2023-04-09T00:15:32;6.90;99.90
56374;DHT22;58212;47.034;7.376;2023-04-09T00:17:59;6.80;99.90
56374;DHT22;58212;47.034;7.376;2023-04-09T00:20:26;6.90;99.90
56374;DHT22;58212;47.034;7.376;2023-04-09T00:22:53;7.00;99.90
56374;DHT22;58212;47.034;7.376;2023-04-09T00:25:22;6.80;99.90
56374;DHT22;58212;47.034;7.376;2023-04-09T00:27:49;6.80;99.90
56374;DHT22;58212;47.034;7.376;2023-04-09T00:30:16;6.80;99.90
56374;DHT22;58212;47.034;7.376;2023-04-09T00:32:42;6.60;99.90
56374;DHT22;58212;47.034;7.376;2023-04-09T00:35:09;6.70;99.90
56374;DHT22;58212;47.034;7.376;2023-04-09T00:37:36;6.70;99.90
56374;DHT22;58212;47.034;7.376;2023-04-09T00:40:04;6.80;99.90
56374;DHT22;58212;47.034;7.376;2023-04-09T00:42:34;6.70;99.90
56374;DHT22;58212;47.034;7.376;2023-04-09T00:45:03;6.70;99.90
56374;DHT22;58212;47.034;7.376;2023-04-09T00:47:30;6.70;99.90
56374;DHT22;58212;47.034;7.376;2023-04-09T00:49:59;6.90;99.90
56374;DHT22;58212;47.034;7.376;2023-04-09T00:52:27;6.90;99.90
56374;DHT22;58212;47.034;7.376;2023-04-09T00:54:56;6.90;99.90
56374;DHT22;58212;47.034;7.376;2023-04-09T00:57:24;6.90;99.90
56374;DHT22;58212;47.034;7.376;2023-04-09T00:59:54;6.90;99.90
56374;DHT22;58212;47.034;7.376;2023-04-09T01:02:21;6.70;99.90
56374;DHT22;58212;47.034;7.376;2023-04-09T01:04:50;6.70;99.90
56374;DHT22;58212;47.034;7.376;2023-04-09T01:07:33;6.80;99.90
56374;DHT22;58212;47.034;7.376;2023-04-09T01:10:10;6.70;99.90
56374;DHT22;58212;47.034;7.376;2023-04-09T01:12:45;6.70;99.90
56374;DHT22;58212;47.034;7.376;2023-04-09T01:15:20;6.70;99.90
56374;DHT22;58212;47.034;7.376;2023-04-09T01:17:52;6.70;99.90
56374;DHT22;58212;47.034;7.376;2023-04-09T01:20:27;6.60;99.90
56374;DHT22;58212;47.034;7.376;2023-04-09T01:23:00;6.60;99.90
56374;DHT22;58212;47.034;7.376;2023-04-09T01:25:42;6.60;99.90
56374;DHT22;58212;47.034;7.376;2023-04-09T01:28:26;6.60;99.90
56374;DHT22;58212;47.034;7.376;2023-04-09T01:30:57;6.60;99.90
56374;DHT22;58212;47.034;7.376;2023-04-09T01:33:28;6.40;99.90
56374;DHT22;58212;47.034;7.376;2023-04-09T01:35:56;6.40;99.90
56374;DHT22;58212;47.034;7.376;2023-04-09T01:38:25;6.30;99.90
56374;DHT22;58212;47.034;7.376;2023-04-09T01:40:54;6.30;99.90
56374;DHT22;58212;47.034;7.376;2023-04-09T01:43:23;6.20;99.90
56374;DHT22;58212;47.034;7.376;2023-04-09T01:45:53;6.20;99.90
56374;DHT22;58212;47.034;7.376;2023-04-09T01:48:21;6.20;99.90
56374;DHT22;58212;47.034;7.376;2023-04-09T01:50:49;6.20;99.90
56374;DHT22;58212;47.034;7.376;2023-04-09T01:53:17;6.10;99.90
56374;DHT22;58212;47.034;7.376;2023-04-09T01:55:43;6.00;99.90
56374;DHT22;58212;47.034;7.376;2023-04-09T01:58:10;6.00;99.90
56374;DHT22;58212;47.034;7.376;2023-04-09T02:00:46;6.10;99.90
56374;DHT22;58212;47.034;7.376;2023-04-09T02:03:17;6.00;99.90
56374;DHT22;58212;47.034;7.376;2023-04-09T02:05:49;6.00;99.90
56374;DHT22;58212;47.034;7.376;2023-04-09T02:08:20;6.10;99.90
56374;DHT22;58212;47.034;7.376;2023-04-09T02:10:50;5.90;99.90
56374;DHT22;58212;47.034;7.376;2023-04-09T02:13:21;5.90;99.90
56374;DHT22;58212;47.034;7.376;2023-04-09T02:15:49;5.80;99.90
56374;DHT22;58212;47.034;7.376;2023-04-09T02:18:26;5.90;99.90
56374;DHT22;58212;47.034;7.376;2023-04-09T02:20:54;6.00;99.90
56374;DHT22;58212;47.034;7.376;2023-04-09T02:23:21;5.90;99.90
56374;DHT22;58212;47.034;7.376;2023-04-09T02:25:48;6.00;99.90
56374;DHT22;58212;47.034;7.376;2023-04-09T02:28:15;6.10;99.90
56374;DHT22;58212;47.034;7.376;2023-04-09T02:30:43;6.20;99.90
56374;DHT22;58212;47.034;7.376;2023-04-09T02:33:10;6.20;99.90
56374;DHT22;58212;47.034;7.376;2023-04-09T02:35:38;6.00;99.90
56374;DHT22;58212;47.034;7.376;2023-04-09T02:38:07;6.10;99.90
56374;DHT22;58212;47.034;7.376;2023-04-09T02:40:38;6.20;99.90
56374;DHT22;58212;47.034;7.376;2023-04-09T02:43:06;6.30;99.90
56374;DHT22;58212;47.034;7.376;2023-04-09T02:45:33;6.20;99.90
56374;DHT22;58212;47.034;7.376;2023-04-09T02:48:00;6.10;99.90
56374;DHT22;58212;47.034;7.376;2023-04-09T02:50:31;6.00;99.90
56374;DHT22;58212;47.034;7.376;2023-04-09T02:52:59;5.90;99.90
56374;DHT22;58212;47.034;7.376;2023-04-09T02:55:26;5.90;99.90
56374;DHT22;58212;47.034;7.376;2023-04-09T02:57:53;5.90;99.90
56374;DHT22;58212;47.034;7.376;2023-04-09T03:00:20;5.70;99.90
56374;DHT22;58212;47.034;7.376;2023-04-09T03:02:47;5.70;99.90
56374;DHT22;58212;47.034;7.376;2023-04-09T03:05:15;5.70;99.90
56374;DHT22;58212;47.034;7.376;2023-04-09T03:07:42;5.60;99.90
56374;DHT22;58212;47.034;7.376;2023-04-09T03:10:10;5.50;99.90
56374;DHT22;58212;47.034;7.376;2023-04-09T03:12:38;5.40;99.90
56374;DHT22;58212;47.034;7.376;2023-04-09T03:15:06;5.40;99.90
56374;DHT22;58212;47.034;7.376;2023-04-09T03:17:34;5.60;99.90
56374;DHT22;58212;47.034;7.376;2023-04-09T03:20:01;5.70;99.90
56374;DHT22;58212;47.034;7.376;2023-04-09T03:22:35;5.70;99.90
56374;DHT22;58212;47.034;7.376;2023-04-09T03:25:29;5.90;99.90
56374;DHT22;58212;47.034;7.376;2023-04-09T03:28:21;5.90;99.90
56374;DHT22;58212;47.034;7.376;2023-04-09T03:30:52;5.80;99.90
56374;DHT22;58212;47.034;7.376;2023-04-09T03:33:21;5.80;99.90
56374;DHT22;58212;47.034;7.376;2023-04-09T03:35:54;5.60;99.90
56374;DHT22;58212;47.034;7.376;2023-04-09T03:38:31;5.40;99.90
56374;DHT22;58212;47.034;7.376;2023-04-09T03:41:04;5.40;99.90
56374;DHT22;58212;47.034;7.376;2023-04-09T03:43:32;5.40;99.90
56374;DHT22;58212;47.034;7.376;2023-04-09T03:46:00;5.40;99.90
56374;DHT22;58212;47.034;7.376;2023-04-09T03:48:27;5.40;99.90
56374;DHT22;58212;47.034;7.376;2023-04-09T03:50:56;5.40;99.90
56374;DHT22;58212;47.034;7.376;2023-04-09T03:53:31;5.40;99.90
56374;DHT22;58212;47.034;7.376;2023-04-09T03:56:04;5.40;99.90
56374;DHT22;58212;47.034;7.376;2023-04-09T03:58:35;5.40;99.90
56374;DHT22;58212;47.034;7.376;2023-04-09T04:01:03;5.40;99.90
56374;DHT22;58212;47.034;7.376;2023-04-09T04:03:37;5.40;99.90
56374;DHT22;58212;47.034;7.376;2023-04-09T04:06:22;5.20;99.90
56374;DHT22;58212;47.034;7.376;2023-04-09T04:09:20;5.20;99.90
56374;DHT22;58212;47.034;7.376;2023-04-09T04:11:59;5.40;99.90
56374;DHT22;58212;47.034;7.376;2023-04-09T04:14:41;5.40;99.90
56374;DHT22;58212;47.034;7.376;2023-04-09T04:17:18;5.50;99.90
56374;DHT22;58212;47.034;7.376;2023-04-09T04:19:46;5.50;99.90
56374;DHT22;58212;47.034;7.376;2023-04-09T04:22:14;5.40;99.90
56374;DHT22;58212;47.034;7.376;2023-04-09T04:24:44;5.30;99.90
56374;DHT22;58212;47.034;7.376;2023-04-09T04:27:18;5.10;99.90
56374;DHT22;58212;47.034;7.376;2023-04-09T04:29:45;5.10;99.90
56374;DHT22;58212;47.034;7.376;2023-04-09T04:32:46;5.20;99.90
56374;DHT22;58212;47.034;7.376;2023-04-09T04:35:14;5.20;99.90
56374;DHT22;58212;47.034;7.376;2023-04-09T04:37:41;5.10;99.90
56374;DHT22;58212;47.034;7.376;2023-04-09T04:40:09;5.20;99.90
56374;DHT22;58212;47.034;7.376;2023-04-09T04:42:42;5.30;99.90
56374;DHT22;58212;47.034;7.376;2023-04-09T04:45:13;5.40;99.90
56374;DHT22;58212;47.034;7.376;2023-04-09T04:47:48;5.30;99.90
56374;DHT22;58212;47.034;7.376;2023-04-09T04:50:15;5.30;99.90
56374;DHT22;58212;47.034;7.376;2023-04-09T04:53:13;5.30;99.90
56374;DHT22;58212;47.034;7.376;2023-04-09T04:55:46;5.10;99.90
56374;DHT22;58212;47.034;7.376;2023-04-09T04:58:21;5.00;99.90
56374;DHT22;58212;47.034;7.376;2023-04-09T05:00:53;5.00;99.90
56374;DHT22;58212;47.034;7.376;2023-04-09T05:03:22;4.90;99.90
56374;DHT22;58212;47.034;7.376;2023-04-09T05:06:12;5.00;99.90
56374;DHT22;58212;47.034;7.376;2023-04-09T05:08:42;4.80;99.90
56374;DHT22;58212;47.034;7.376;2023-04-09T05:11:14;5.10;99.90
56374;DHT22;58212;47.034;7.376;2023-04-09T05:13:45;5.60;99.90
56374;DHT22;58212;47.034;7.376;2023-04-09T05:16:16;6.10;99.90
56374;DHT22;58212;47.034;7.376;2023-04-09T05:18:47;6.40;99.90
56374;DHT22;58212;47.034;7.376;2023-04-09T05:21:15;6.90;99.90
56374;DHT22;58212;47.034;7.376;2023-04-09T05:23:43;7.30;99.90
56374;DHT22;58212;47.034;7.376;2023-04-09T05:26:36;7.50;99.90
56374;DHT22;58212;47.034;7.376;2023-04-09T05:29:06;7.90;99.90
56374;DHT22;58212;47.034;7.376;2023-04-09T05:31:34;8.10;99.90
56374;DHT22;58212;47.034;7.376;2023-04-09T05:34:08;8.20;99.90
56374;DHT22;58212;47.034;7.376;2023-04-09T05:36:43;8.50;99.90
56374;DHT22;58212;47.034;7.376;2023-04-09T05:39:10;8.70;99.90
56374;DHT22;58212;47.034;7.376;2023-04-09T05:41:37;8.80;99.90
56374;DHT22;58212;47.034;7.376;2023-04-09T05:44:25;9.10;99.90
56374;DHT22;58212;47.034;7.376;2023-04-09T05:47:13;9.50;99.90
56374;DHT22;58212;47.034;7.376;2023-04-09T05:49:48;9.50;99.90
56374;DHT22;58212;47.034;7.376;2023-04-09T05:52:16;9.80;99.90
56374;DHT22;58212;47.034;7.376;2023-04-09T05:54:45;9.90;99.90
56374;DHT22;58212;47.034;7.376;2023-04-09T05:57:16;10.40;99.90
56374;DHT22;58212;47.034;7.376;2023-04-09T05:59:52;11.00;99.90
56374;DHT22;58212;47.034;7.376;2023-04-09T06:02:20;10.40;99.90
56374;DHT22;58212;47.034;7.376;2023-04-09T06:04:50;9.80;99.90
56374;DHT22;58212;47.034;7.376;2023-04-09T06:07:19;9.20;99.90
56374;DHT22;58212;47.034;7.376;2023-04-09T06:09:46;8.40;99.90
56374;DHT22;58212;47.034;7.376;2023-04-09T06:12:13;9.00;99.90
56374;DHT22;58212;47.034;7.376;2023-04-09T06:14:41;9.20;99.90
56374;DHT22;58212;47.034;7.376;2023-04-09T06:17:10;8.80;99.90
56374;DHT22;58212;47.034;7.376;2023-04-09T06:19:37;8.50;99.90
56374;DHT22;58212;47.034;7.376;2023-04-09T06:22:07;8.40;99.90
56374;DHT22;58212;47.034;7.376;2023-04-09T06:24:38;8.70;99.90
56374;DHT22;58212;47.034;7.376;2023-04-09T06:27:09;9.00;99.90
56374;DHT22;58212;47.034;7.376;2023-04-09T06:29:37;9.10;99.90
56374;DHT22;58212;47.034;7.376;2023-04-09T06:32:19;9.10;99.90
56374;DHT22;58212;47.034;7.376;2023-04-09T06:34:46;8.60;99.90
56374;DHT22;58212;47.034;7.376;2023-04-09T06:37:13;9.10;99.90
56374;DHT22;58212;47.034;7.376;2023-04-09T06:39:41;8.90;99.90
56374;DHT22;58212;47.034;7.376;2023-04-09T06:42:08;7.80;99.90
56374;DHT22;58212;47.034;7.376;2023-04-09T06:44:49;8.10;99.90
56374;DHT22;58212;47.034;7.376;2023-04-09T06:47:16;7.70;99.90
56374;DHT22;58212;47.034;7.376;2023-04-09T06:49:48;9.10;99.90
56374;DHT22;58212;47.034;7.376;2023-04-09T06:52:18;9.30;99.90
56374;DHT22;58212;47.034;7.376;2023-04-09T06:54:46;8.40;99.90
56374;DHT22;58212;47.034;7.376;2023-04-09T06:57:14;8.00;99.90
56374;DHT22;58212;47.034;7.376;2023-04-09T06:59:41;7.60;99.90
56374;DHT22;58212;47.034;7.376;2023-04-09T07:02:08;7.20;99.90
56374;DHT22;58212;47.034;7.376;2023-04-09T07:04:35;7.40;99.90
56374;DHT22;58212;47.034;7.376;2023-04-09T07:07:04;7.40;99.90
56374;DHT22;58212;47.034;7.376;2023-04-09T07:09:32;7.60;99.90
56374;DHT22;58212;47.034;7.376;2023-04-09T07:12:26;7.40;99.90
56374;DHT22;58212;47.034;7.376;2023-04-09T07:14:57;7.50;99.90
56374;DHT22;58212;47.034;7.376;2023-04-09T07:17:24;7.30;99.90
56374;DHT22;58212;47.034;7.376;2023-04-09T07:19:51;7.30;99.90
56374;DHT22;58212;47.034;7.376;2023-04-09T07:22:22;7.10;99.90
56374;DHT22;58212;47.034;7.376;2023-04-09T07:24:49;7.00;99.90
56374;DHT22;58212;47.034;7.376;2023-04-09T07:27:18;7.20;99.90
56374;DHT22;58212;47.034;7.376;2023-04-09T07:29:46;7.10;99.90
56374;DHT22;58212;47.034;7.376;2023-04-09T07:32:12;7.10;99.90
56374;DHT22;58212;47.034;7.376;2023-04-09T07:34:42;7.40;99.90
56374;DHT22;58212;47.034;7.376;2023-04-09T07:37:09;7.70;99.90
56374;DHT22;58212;47.034;7.376;2023-04-09T07:39:38;7.70;99.90
56374;DHT22;58212;47.034;7.376;2023-04-09T07:42:05;7.40;99.90
56374;DHT22;58212;47.034;7.376;2023-04-09T07:44:34;7.50;99.90
56374;DHT22;58212;47.034;7.376;2023-04-09T07:47:02;7.30;99.90
56374;DHT22;58212;47.034;7.376;2023-04-09T07:49:29;7.40;99.90
56374;DHT22;58212;47.034;7.376;2023-04-09T07:51:57;7.60;99.90
56374;DHT22;58212;47.034;7.376;2023-04-09T07:54:24;7.50;99.90
56374;DHT22;58212;47.034;7.376;2023-04-09T07:56:54;7.30;99.90
56374;DHT22;58212;47.034;7.376;2023-04-09T07:59:22;7.50;99.90
56374;DHT22;58212;47.034;7.376;2023-04-09T08:02:14;7.60;99.90
56374;DHT22;58212;47.034;7.376;2023-04-09T08:05:07;7.30;99.90
56374;DHT22;58212;47.034;7.376;2023-04-09T08:07:34;7.50;99.90
56374;DHT22;58212;47.034;7.376;2023-04-09T08:10:01;8.00;99.90
56374;DHT22;58212;47.034;7.376;2023-04-09T08:12:30;8.10;99.90
56374;DHT22;58212;47.034;7.376;2023-04-09T08:14:57;8.30;99.90
56374;DHT22;58212;47.034;7.376;2023-04-09T08:17:24;8.20;99.90
56374;DHT22;58212;47.034;7.376;2023-04-09T08:19:51;8.50;99.90
56374;DHT22;58212;47.034;7.376;2023-04-09T08:22:19;8.80;99.90
56374;DHT22;58212;47.034;7.376;2023-04-09T08:24:50;9.30;99.90
56374;DHT22;58212;47.034;7.376;2023-04-09T08:27:19;9.10;99.90
56374;DHT22;58212;47.034;7.376;2023-04-09T08:29:48;9.40;99.90
56374;DHT22;58212;47.034;7.376;2023-04-09T08:32:15;9.40;99.90
56374;DHT22;58212;47.034;7.376;2023-04-09T08:34:42;8.90;99.90
56374;DHT22;58212;47.034;7.376;2023-04-09T08:37:11;8.80;99.90
56374;DHT22;58212;47.034;7.376;2023-04-09T08:39:38;8.90;99.90
56374;DHT22;58212;47.034;7.376;2023-04-09T08:42:05;8.50;99.90
56374;DHT22;58212;47.034;7.376;2023-04-09T08:44:33;8.90;99.90
56374;DHT22;58212;47.034;7.376;2023-04-09T08:47:07;9.20;99.90
56374;DHT22;58212;47.034;7.376;2023-04-09T08:49:37;8.80;99.90
56374;DHT22;58212;47.034;7.376;2023-04-09T08:52:04;9.10;99.90
56374;DHT22;58212;47.034;7.376;2023-04-09T08:54:32;9.30;99.90
56374;DHT22;58212;47.034;7.376;2023-04-09T08:56:59;9.30;99.90
56374;DHT22;58212;47.034;7.376;2023-04-09T08:59:30;9.50;99.90
56374;DHT22;58212;47.034;7.376;2023-04-09T09:02:09;10.00;99.90
56374;DHT22;58212;47.034;7.376;2023-04-09T09:04:43;9.90;99.90
56374;DHT22;58212;47.034;7.376;2023-04-09T09:07:11;9.80;99.90
56374;DHT22;58212;47.034;7.376;2023-04-09T09:09:50;9.70;99.90
56374;DHT22;58212;47.034;7.376;2023-04-09T09:12:31;9.90;99.90
56374;DHT22;58212;47.034;7.376;2023-04-09T09:15:00;9.90;99.90
56374;DHT22;58212;47.034;7.376;2023-04-09T09:17:29;10.20;99.90
56374;DHT22;58212;47.034;7.376;2023-04-09T09:19:56;10.80;99.90
56374;DHT22;58212;47.034;7.376;2023-04-09T09:22:23;11.00;99.90
56374;DHT22;58212;47.034;7.376;2023-04-09T09:24:52;10.70;99.90
56374;DHT22;58212;47.034;7.376;2023-04-09T09:27:32;10.60;99.90
56374;DHT22;58212;47.034;7.376;2023-04-09T09:30:02;11.10;99.90
56374;DHT22;58212;47.034;7.376;2023-04-09T09:32:31;11.00;99.90
56374;DHT22;58212;47.034;7.376;2023-04-09T09:35:01;10.50;99.90
56374;DHT22;58212;47.034;7.376;2023-04-09T09:37:29;10.70;99.90
56374;DHT22;58212;47.034;7.376;2023-04-09T09:39:57;10.50;99.90
56374;DHT22;58212;47.034;7.376;2023-04-09T09:42:24;10.70;99.90
56374;DHT22;58212;47.034;7.376;2023-04-09T09:44:52;11.10;99.90
56374;DHT22;58212;47.034;7.376;2023-04-09T09:47:20;11.20;99.90
56374;DHT22;58212;47.034;7.376;2023-04-09T09:49:49;11.00;99.90
56374;DHT22;58212;47.034;7.376;2023-04-09T09:52:24;11.00;99.90
56374;DHT22;58212;47.034;7.376;2023-04-09T09:54:53;11.20;99.90
56374;DHT22;58212;47.034;7.376;2023-04-09T09:57:22;10.70;99.90
56374;DHT22;58212;47.034;7.376;2023-04-09T09:59:54;10.70;99.90
56374;DHT22;58212;47.034;7.376;2023-04-09T10:02:26;11.10;99.90
56374;DHT22;58212;47.034;7.376;2023-04-09T10:04:59;11.40;99.90
56374;DHT22;58212;47.034;7.376;2023-04-09T10:07:27;11.80;99.90
56374;DHT22;58212;47.034;7.376;2023-04-09T10:09:56;11.60;99.90
56374;DHT22;58212;47.034;7.376;2023-04-09T10:12:25;11.00;99.90
56374;DHT22;58212;47.034;7.376;2023-04-09T10:14:53;11.30;99.90
56374;DHT22;58212;47.034;7.376;2023-04-09T10:17:20;11.50;99.90
56374;DHT22;58212;47.034;7.376;2023-04-09T10:19:53;11.70;99.90
56374;DHT22;58212;47.034;7.376;2023-04-09T10:22:26;12.40;99.90
56374;DHT22;58212;47.034;7.376;2023-04-09T10:24:55;12.00;99.90
56374;DHT22;58212;47.034;7.376;2023-04-09T10:27:22;12.40;99.90
56374;DHT22;58212;47.034;7.376;2023-04-09T10:29:49;11.30;99.90
56374;DHT22;58212;47.034;7.376;2023-04-09T10:32:18;11.70;99.90
56374;DHT22;58212;47.034;7.376;2023-04-09T10:34:47;12.00;99.90
56374;DHT22;58212;47.034;7.376;2023-04-09T10:37:20;12.30;99.90
56374;DHT22;58212;47.034;7.376;2023-04-09T10:39:50;11.90;99.90
56374;DHT22;58212;47.034;7.376;2023-04-09T10:42:19;11.60;99.90
56374;DHT22;58212;47.034;7.376;2023-04-09T10:45:04;12.30;99.90
56374;DHT22;58212;47.034;7.376;2023-04-09T10:47:32;12.40;99.90
56374;DHT22;58212;47.034;7.376;2023-04-09T10:50:14;12.50;99.90
56374;DHT22;58212;47.034;7.376;2023-04-09T10:52:41;12.00;99.90
56374;DHT22;58212;47.034;7.376;2023-04-09T10:55:29;12.30;99.90
56374;DHT22;58212;47.034;7.376;2023-04-09T10:57:56;12.30;99.90
56374;DHT22;58212;47.034;7.376;2023-04-09T11:00:23;12.60;99.90
56374;DHT22;58212;47.034;7.376;2023-04-09T11:03:12;12.70;99.90
56374;DHT22;58212;47.034;7.376;2023-04-09T11:05:46;12.60;99.90
56374;DHT22;58212;47.034;7.376;2023-04-09T11:08:15;12.90;99.90
56374;DHT22;58212;47.034;7.376;2023-04-09T11:10:44;12.70;99.90
56374;DHT22;58212;47.034;7.376;2023-04-09T11:13:13;13.10;99.90
56374;DHT22;58212;47.034;7.376;2023-04-09T11:15:40;12.60;99.90
56374;DHT22;58212;47.034;7.376;2023-04-09T11:18:07;12.50;99.90
56374;DHT22;58212;47.034;7.376;2023-04-09T11:20:35;12.30;99.90
56374;DHT22;58212;47.034;7.376;2023-04-09T11:23:02;12.60;99.90
56374;DHT22;58212;47.034;7.376;2023-04-09T11:25:31;12.80;99.90
56374;DHT22;58212;47.034;7.376;2023-04-09T11:28:02;12.70;99.90
56374;DHT22;58212;47.034;7.376;2023-04-09T11:30:29;13.00;99.90
56374;DHT22;58212;47.034;7.376;2023-04-09T11:32:58;13.20;99.90
56374;DHT22;58212;47.034;7.376;2023-04-09T11:35:25;13.60;99.90
56374;DHT22;58212;47.034;7.376;2023-04-09T11:37:53;13.60;99.90
56374;DHT22;58212;47.034;7.376;2023-04-09T11:40:22;13.60;99.90
56374;DHT22;58212;47.034;7.376;2023-04-09T11:42:52;13.10;99.90
56374;DHT22;58212;47.034;7.376;2023-04-09T11:45:23;12.80;99.90
56374;DHT22;58212;47.034;7.376;2023-04-09T11:47:51;13.10;99.90
56374;DHT22;58212;47.034;7.376;2023-04-09T11:50:18;13.00;99.90
56374;DHT22;58212;47.034;7.376;2023-04-09T11:52:46;13.10;99.90
56374;DHT22;58212;47.034;7.376;2023-04-09T11:55:22;12.80;99.90
56374;DHT22;58212;47.034;7.376;2023-04-09T11:57:51;13.50;99.90
56374;DHT22;58212;47.034;7.376;2023-04-09T12:00:20;13.50;99.90
56374;DHT22;58212;47.034;7.376;2023-04-09T12:02:50;13.30;99.90
56374;DHT22;58212;47.034;7.376;2023-04-09T12:05:21;13.20;99.90
56374;DHT22;58212;47.034;7.376;2023-04-09T12:07:49;13.10;99.90
56374;DHT22;58212;47.034;7.376;2023-04-09T12:10:17;13.70;99.90
56374;DHT22;58212;47.034;7.376;2023-04-09T12:12:45;13.70;99.90
56374;DHT22;58212;47.034;7.376;2023-04-09T12:15:21;14.20;99.90
56374;DHT22;58212;47.034;7.376;2023-04-09T12:17:49;13.70;99.90
56374;DHT22;58212;47.034;7.376;2023-04-09T12:20:27;14.20;99.90
56374;DHT22;58212;47.034;7.376;2023-04-09T12:22:54;14.00;99.90
56374;DHT22;58212;47.034;7.376;2023-04-09T12:25:21;14.10;99.90
56374;DHT22;58212;47.034;7.376;2023-04-09T12:27:48;14.00;99.90
56374;DHT22;58212;47.034;7.376;2023-04-09T12:30:15;13.60;99.90
56374;DHT22;58212;47.034;7.376;2023-04-09T12:32:44;13.70;99.90
56374;DHT22;58212;47.034;7.376;2023-04-09T12:35:13;13.90;99.90
56374;DHT22;58212;47.034;7.376;2023-04-09T12:37:41;13.50;99.90
56374;DHT22;58212;47.034;7.376;2023-04-09T12:40:08;13.60;99.90
56374;DHT22;58212;47.034;7.376;2023-04-09T12:42:37;13.30;99.90
56374;DHT22;58212;47.034;7.376;2023-04-09T12:45:05;13.90;99.90
56374;DHT22;58212;47.034;7.376;2023-04-09T12:47:32;14.20;99.90
56374;DHT22;58212;47.034;7.376;2023-04-09T12:50:01;14.70;99.90
56374;DHT22;58212;47.034;7.376;2023-04-09T12:52:28;14.80;99.90
56374;DHT22;58212;47.034;7.376;2023-04-09T12:54:55;14.80;99.90
56374;DHT22;58212;47.034;7.376;2023-04-09T12:57:22;14.80;99.90
56374;DHT22;58212;47.034;7.376;2023-04-09T12:59:50;14.40;99.90
56374;DHT22;58212;47.034;7.376;2023-04-09T13:02:18;14.50;99.90
56374;DHT22;58212;47.034;7.376;2023-04-09T13:04:45;14.90;99.90
56374;DHT22;58212;47.034;7.376;2023-04-09T13:07:15;15.00;99.90
56374;DHT22;58212;47.034;7.376;2023-04-09T13:09:44;14.40;99.90
56374;DHT22;58212;47.034;7.376;2023-04-09T13:12:12;14.50;99.90
56374;DHT22;58212;47.034;7.376;2023-04-09T13:14:39;14.90;99.90
56374;DHT22;58212;47.034;7.376;2023-04-09T13:17:06;15.00;99.90
56374;DHT22;58212;47.034;7.376;2023-04-09T13:19:33;14.60;99.90
56374;DHT22;58212;47.034;7.376;2023-04-09T13:22:00;14.70;99.90
56374;DHT22;58212;47.034;7.376;2023-04-09T13:24:29;14.90;99.90
56374;DHT22;58212;47.034;7.376;2023-04-09T13:26:56;14.30;99.90
56374;DHT22;58212;47.034;7.376;2023-04-09T13:29:23;13.80;99.90
56374;DHT22;58212;47.034;7.376;2023-04-09T13:31:54;14.70;99.90
56374;DHT22;58212;47.034;7.376;2023-04-09T13:34:21;14.20;99.90
56374;DHT22;58212;47.034;7.376;2023-04-09T13:36:48;14.40;99.90
56374;DHT22;58212;47.034;7.376;2023-04-09T13:39:15;14.90;99.90
56374;DHT22;58212;47.034;7.376;2023-04-09T13:41:44;14.70;99.90
56374;DHT22;58212;47.034;7.376;2023-04-09T13:44:11;15.00;99.90
56374;DHT22;58212;47.034;7.376;2023-04-09T13:46:38;15.10;99.90
56374;DHT22;58212;47.034;7.376;2023-04-09T13:49:05;15.10;99.90
56374;DHT22;58212;47.034;7.376;2023-04-09T13:51:32;14.40;99.90
56374;DHT22;58212;47.034;7.376;2023-04-09T13:53:59;14.60;99.90
56374;DHT22;58212;47.034;7.376;2023-04-09T13:56:26;15.00;99.90
56374;DHT22;58212;47.034;7.376;2023-04-09T13:58:54;14.90;99.90
56374;DHT22;58212;47.034;7.376;2023-04-09T14:01:21;13.70;99.90
56374;DHT22;58212;47.034;7.376;2023-04-09T14:03:48;14.20;99.90
56374;DHT22;58212;47.034;7.376;2023-04-09T14:06:15;14.30;99.90
56374;DHT22;58212;47.034;7.376;2023-04-09T14:08:43;14.60;99.90
56374;DHT22;58212;47.034;7.376;2023-04-09T14:11:10;15.20;99.90
56374;DHT22;58212;47.034;7.376;2023-04-09T14:13:39;14.50;99.90
56374;DHT22;58212;47.034;7.376;2023-04-09T14:16:08;14.60;99.90
56374;DHT22;58212;47.034;7.376;2023-04-09T14:18:35;14.50;99.90
56374;DHT22;58212;47.034;7.376;2023-04-09T14:21:04;15.10;99.90
56374;DHT22;58212;47.034;7.376;2023-04-09T14:23:31;15.30;99.90
56374;DHT22;58212;47.034;7.376;2023-04-09T14:25:58;14.90;99.90
56374;DHT22;58212;47.034;7.376;2023-04-09T14:28:25;14.40;99.90
56374;DHT22;58212;47.034;7.376;2023-04-09T14:30:53;14.50;99.90
56374;DHT22;58212;47.034;7.376;2023-04-09T14:33:21;14.60;99.90
56374;DHT22;58212;47.034;7.376;2023-04-09T14:35:48;14.90;99.90
56374;DHT22;58212;47.034;7.376;2023-04-09T14:38:15;14.90;99.90
56374;DHT22;58212;47.034;7.376;2023-04-09T14:40:42;15.00;99.90
56374;DHT22;58212;47.034;7.376;2023-04-09T14:43:10;15.00;99.90
56374;DHT22;58212;47.034;7.376;2023-04-09T14:45:37;14.80;99.90
56374;DHT22;58212;47.034;7.376;2023-04-09T14:48:04;15.00;99.90
56374;DHT22;58212;47.034;7.376;2023-04-09T14:50:33;15.20;99.90
56374;DHT22;58212;47.034;7.376;2023-04-09T14:53:01;14.30;99.90
56374;DHT22;58212;47.034;7.376;2023-04-09T14:55:28;14.50;99.90
56374;DHT22;58212;47.034;7.376;2023-04-09T14:57:55;14.70;99.90
56374;DHT22;58212;47.034;7.376;2023-04-09T15:00:22;14.30;99.90
56374;DHT22;58212;47.034;7.376;2023-04-09T15:02:50;14.20;99.90
56374;DHT22;58212;47.034;7.376;2023-04-09T15:05:17;14.60;99.90
56374;DHT22;58212;47.034;7.376;2023-04-09T15:07:45;14.70;99.90
56374;DHT22;58212;47.034;7.376;2023-04-09T15:10:12;14.80;99.90
56374;DHT22;58212;47.034;7.376;2023-04-09T15:12:40;14.40;99.90
56374;DHT22;58212;47.034;7.376;2023-04-09T15:15:08;14.40;99.90
56374;DHT22;58212;47.034;7.376;2023-04-09T15:17:35;14.10;99.90
56374;DHT22;58212;47.034;7.376;2023-04-09T15:20:03;14.30;99.90
56374;DHT22;58212;47.034;7.376;2023-04-09T15:22:30;14.50;99.90
56374;DHT22;58212;47.034;7.376;2023-04-09T15:24:59;14.40;99.90
56374;DHT22;58212;47.034;7.376;2023-04-09T15:27:26;14.50;99.90
56374;DHT22;58212;47.034;7.376;2023-04-09T15:29:53;14.20;99.90
56374;DHT22;58212;47.034;7.376;2023-04-09T15:32:20;14.30;99.90
56374;DHT22;58212;47.034;7.376;2023-04-09T15:34:47;14.20;99.90
56374;DHT22;58212;47.034;7.376;2023-04-09T15:37:14;14.20;99.90
56374;DHT22;58212;47.034;7.376;2023-04-09T15:39:41;14.00;99.90
56374;DHT22;58212;47.034;7.376;2023-04-09T15:42:10;13.90;99.90
56374;DHT22;58212;47.034;7.376;2023-04-09T15:44:37;13.80;99.90
56374;DHT22;58212;47.034;7.376;2023-04-09T15:47:04;14.10;99.90
56374;DHT22;58212;47.034;7.376;2023-04-09T15:49:33;13.90;99.90
56374;DHT22;58212;47.034;7.376;2023-04-09T15:52:01;13.80;99.90
56374;DHT22;58212;47.034;7.376;2023-04-09T15:54:28;13.70;99.90
56374;DHT22;58212;47.034;7.376;2023-04-09T15:56:55;13.80;99.90